Primeiro de Maio, Brazil
Current Conditions -  °F | °C
As of 6:00 PM on Monday 22 Dec 2014 (Local Time) from SBLO Reporting Station
Heavy Rain Heavy Rain  
Wind Chill: 68°   Ceiling: 300
Heat Index: 68°   Visibility: 1.2mi
Dew Point: 68°   Wind: 5mph
Humidity: 100%   Direction: 140°SE
Pressure: NA   Gusts: NA
Location:  22.85°S, 51.03°W
Report Text: SBLO 222000Z 14004KT 2000 +RA BR BKN003 BKN012 OVC070 20/20 Q1012 RERA
Loading
Personal Weather Stations






























Interactive Weather Map New forecast layout! Learn more

10-Day Weather Forecast

Advertisements
Track Severe Weather on mobile